Rosamond, Illinois
Current Conditions -  °F | °C
As of 2:55 PM on Friday 31 Oct 2014 (Local Time) from KTAZ Reporting Station
Broken Clouds Broken Clouds  
Wind Chill: 33°   Ceiling: 5000
Heat Index: 43°   Visibility: 10mi
Dew Point: 25°   Wind: 26mph
Humidity: 49%   Direction: 340°NNW
Pressure: 30.24"   Gusts: 35mph
Location:  39.38°N, 89.16°W
Report Text: KTAZ 311955Z AUTO 34023G30KT 10SM BKN050 06/M04 A3024 RMK AO2
Loading
Personal Weather Stations






























Interactive Weather Map
Tropical Storm Tracking
New forecast layout! Learn more

10-Day Weather Forecast

Advertisements
Track Severe Weather on mobile